Atlanta, Georgia
Current Conditions -  °F | °C
As of 7:52 AM on Monday 22 Dec 2014 (Local Time) from KATL Reporting Station
Haze Haze  
Wind Chill:   Ceiling: 300
Heat Index:   Visibility: 0.5mi
Dew Point:   Wind: 12mph
Humidity: 93%   Direction: 90°E
Pressure: 30.03"   Gusts: NA
Location:  33.75°N, 84.39°W
Report Text: KATL 221252Z 09010KT 1/2SM R09R/P6000FT BR OVC003 07/06 A3003 RMK AO2 SFC VIS 1 DZE14 SLP172 P0000 T00720061
Loading
Personal Weather Stations






























Interactive Weather Map New forecast layout! Learn more

10-Day Weather Forecast

Advertisements
Track Severe Weather on mobile